Latest Weather Observations for Broken Hill Airport

IDN60801

Issued at 8:35 pm EDT Monday 20 October 2014 (issued every 30 minutes, with the page automatically refreshed every 10 minutes)

About weather observations | Map of weather stations | Latest weather observations for NSW | Other Formats
Station Details ID: 047048 Name: BROKEN HILL AIRPORT AWS Lat: -32.00 Lon: 141.47 Height: 281.3 m
Data from the previous 72 hours. | See also: Recent months for locations in New South Wales
Date/Time
EDT
Temp
°C
App
Temp
°C
Dew
Point
Rel
Hum
%
Delta-T
°C
Wind Press
QNH
hPa
Press
MSL
hPa
Rain
since 9 am
mm
Dir
 
Spd
km/h
Gust
km/h
Spd
kts
Gust
kts
20/08:30pm 29.1 23.6 -2.1 13 14.4 ESE 17 22 9 12 1021.5 1020.8 0.0
20/08:00pm 29.9 24.3 -2.6 12 15.0 ESE 17 24 9 13 1021.1 1020.4 0.0
20/07:30pm 30.6 25.7 -3.2 11 15.5 ESE 13 19 7 10 1020.7 1020.0 0.0
20/07:00pm 32.3 27.4 -3.2 10 16.5 ESE 13 17 7 9 1020.7 1020.0 0.0
20/06:30pm 32.8 28.0 -2.8 10 16.7 E 13 20 7 11 1020.7 1020.0 0.0
20/06:00pm 33.4 27.7 -3.7 9 17.2 ESE 17 24 9 13 1020.7 1020.0 0.0
20/05:30pm 33.9 28.4 -2.0 10 17.3 SSE 17 24 9 13 1020.6 1019.9 0.0
20/05:00pm 33.4 29.0 -2.3 10 17.0 ENE 11 19 6 10 1020.8 1020.1 0.0
20/04:30pm 33.6 30.0 -2.2 10 17.1 SE 7 17 4 9 1021.0 1020.3 0.0
20/04:00pm 33.5 27.6 -2.3 10 17.0 ENE 19 24 10 13 1021.3 1020.6 0.0
20/03:30pm 33.4 27.9 -2.3 10 17.0 SE 17 22 9 12 1021.6 1020.9 0.0
20/03:00pm 33.8 28.7 -2.0 10 17.1 E 15 22 8 12 1022.0 1021.3 0.0
20/02:30pm 33.3 29.1 -1.1 11 16.7 ENE 11 20 6 11 1022.5 1021.9 0.0
20/02:00pm 32.1 28.3 -0.9 12 15.9 S 9 17 5 9 1023.1 1022.4 0.0
20/01:30pm 31.7 28.4 -0.1 13 15.5 NE 7 20 4 11 1023.5 1022.8 0.0
20/01:00pm 30.8 27.1 0.2 14 14.9 SSE 9 19 5 10 1023.8 1023.1 0.0
20/12:30pm 29.7 25.7 0.3 15 14.2 S 11 15 6 8 1024.1 1023.4 0.0
20/12:00pm 28.9 25.2 -0.3 15 13.9 SE 9 13 5 7 1024.4 1023.7 0.0
20/11:30am 28.0 21.8 2.2 19 12.7 E 24 37 13 20 1024.7 1024.0 0.0
20/11:25am 26.9 22.0 2.1 20 12.2 S 17 44 9 24 1024.8 1024.1 0.0
20/11:22am 26.9 19.9 2.1 20 12.2 N 28 43 15 23 1024.9 1024.2 0.0
20/11:12am 26.1 22.0 2.1 21 11.7 SSW 13 19 7 10 1024.9 1024.2 0.0
20/11:00am 25.6 21.2 2.9 23 11.2 S 15 20 8 11 1025.1 1024.4 0.0
20/10:30am 24.7 20.5 3.9 26 10.4 SSW 15 20 8 11 1025.2 1024.6 0.0
20/10:00am 22.3 17.9 4.8 32 8.7 SSW 17 24 9 13 1025.0 1024.3 0.0
20/09:30am 21.2 16.8 4.7 34 8.1 SSW 17 22 9 12 1025.0 1024.3 0.0
20/09:00am 19.8 14.9 5.1 38 7.2 SSW 20 26 11 14 1024.7 1024.0 0.0
20/08:30am 19.0 14.1 5.1 40 6.8 SSW 20 24 11 13 1024.4 1023.7 0.0
20/08:00am 17.8 13.8 4.7 42 6.3 SSW 15 20 8 11 1024.0 1023.3 0.0
20/07:30am 14.9 10.8 -0.4 35 6.5 SW 11 15 6 8 1023.7 1023.0 0.0
20/07:00am 15.4 11.4 -2.1 30 7.2 WSW 9 11 5 6 1023.2 1022.5 0.0
20/06:30am 16.2 12.1 -2.8 27 7.7 W 9 11 5 6 1022.8 1022.2 0.0
20/06:00am 16.2 12.1 -3.3 26 7.8 WSW 9 9 5 5 1022.5 1021.9 0.0
20/05:30am 16.9 12.7 -3.8 24 8.3 WSW 9 11 5 6 1022.3 1021.7 0.0
20/05:00am 17.1 13.2 -4.2 23 8.5 NE 7 17 4 9 1021.7 1021.0 0.0
20/04:30am 16.7 12.8 -4.5 23 8.4 NNE 7 9 4 5 1021.4 1020.7 0.0
20/04:00am 16.4 11.7 -4.8 23 8.3 NE 11 13 6 7 1021.4 1020.7 0.0
20/03:30am 17.6 13.0 -4.3 22 8.8 NNE 11 15 6 8 1021.3 1020.6 0.0
20/03:00am 17.4 13.5 -5.1 21 8.8 NNE 7 9 4 5 1021.6 1020.9 0.0
20/02:30am 20.6 15.3 -3.8 19 10.2 NNE 15 17 8 9 1021.5 1020.8 0.0
20/02:00am 19.0 15.0 -5.8 18 9.8 NNE 7 9 4 5 1021.9 1021.2 0.0
20/01:30am 20.4 18.0 -3.3 20 10.0 CALM 0 0 0 0 1022.2 1021.6 0.0
20/01:00am 19.7 15.7 -5.3 18 10.0 NE 7 9 4 5 1022.3 1021.7 0.0
20/12:59am 19.3 15.2 -6.3 17 10.0 NE 7 9 4 5 1022.3 1021.7 0.0
20/12:30am 24.3 20.0 -4.9 14 12.3 NE 9 9 5 5 1022.5 1021.9 0.0
20/12:00am 20.4 16.1 -4.7 18 10.2 NE 9 11 5 6 1022.6 1022.0 0.0
 
Date/Time
EDT
Temp
°C
App
Temp
°C
Dew
Point
Rel
Hum
%
Delta-T
°C
Wind Press
QNH
hPa
Press
MSL
hPa
Rain
since 9 am
mm
Dir
 
Spd
km/h
Gust
km/h
Spd
kts
Gust
kts
19/11:30pm 20.8 16.2 -4.4 18 10.4 NE 11 13 6 7 1022.6 1022.0 0.0
19/11:00pm 20.8 18.2 -5.1 17 10.5 CALM 0 0 0 0 1022.6 1022.0 0.0
19/10:30pm 22.7 20.1 -5.2 15 11.6 CALM 0 0 0 0 1022.6 1022.0 0.0
19/10:00pm 21.2 18.6 -4.8 17 10.7 CALM 0 0 0 0 1022.4 1021.8 0.0
19/09:30pm 24.6 22.1 -3.7 15 12.2 CALM 0 0 0 0 1022.4 1021.8 0.0
19/09:00pm 23.2 20.5 -5.7 14 11.9 CALM 0 0 0 0 1022.1 1021.5 0.0
19/08:30pm 27.0 23.4 -3.7 13 13.6 WNW 6 6 3 3 1021.7 1021.0 0.0
19/08:00pm 29.1 25.2 -4.3 11 14.8 NW 7 7 4 4 1021.4 1020.7 0.0
19/07:30pm 30.0 26.2 -3.6 11 15.3 NW 7 9 4 5 1021.0 1020.3 0.0
19/07:00pm 30.9 27.0 -4.2 10 15.9 NNW 7 11 4 6 1020.6 1019.9 0.0
19/06:30pm 32.0 28.2 -3.4 10 16.3 WNW 7 13 4 7 1020.5 1019.8 0.0
19/06:00pm 32.9 29.2 -4.1 9 17.0 N 6 19 3 10 1020.4 1019.7 0.0
19/05:30pm 32.5 28.0 -3.0 10 16.6 NNW 11 19 6 10 1020.3 1019.6 0.0
19/05:00pm 32.8 28.6 -4.2 9 17.0 NNW 9 19 5 10 1020.3 1019.6 0.0
19/04:30pm 32.2 26.9 -3.2 10 16.5 NW 15 20 8 11 1020.4 1019.7 0.0
19/04:00pm 32.9 27.9 -4.1 9 17.0 N 13 22 7 12 1020.6 1019.9 0.0
19/03:30pm 32.7 28.6 -2.9 10 16.7 E 9 22 5 12 1020.9 1020.2 0.0
19/03:00pm 32.0 26.6 -4.8 9 16.6 N 15 30 8 16 1021.2 1020.5 0.0
19/02:30pm 31.8 25.6 -3.5 10 16.3 NNE 20 22 11 12 1021.6 1020.9 0.0
19/02:00pm 32.0 26.3 -3.4 10 16.3 NW 17 24 9 13 1022.1 1021.5 0.0
19/01:30pm 31.2 24.5 -4.0 10 16.0 NNE 22 30 12 16 1022.4 1021.8 0.0
19/01:00pm 30.2 24.5 -3.5 11 15.3 N 17 26 9 14 1022.8 1022.2 0.0
19/12:30pm 29.6 23.5 -3.9 11 15.0 N 19 28 10 15 1023.2 1022.5 0.0
19/12:00pm 29.4 23.3 -4.1 11 15.0 N 19 33 10 18 1023.5 1022.8 0.0
19/11:30am 29.0 22.8 -3.2 12 14.6 N 20 30 11 16 1023.7 1023.0 0.0
19/11:00am 28.4 21.1 -2.6 13 14.1 NNE 26 35 14 19 1024.0 1023.3 0.0
19/10:30am 27.5 21.0 -2.3 14 13.6 N 22 33 12 18 1024.1 1023.4 0.0
19/10:00am 26.6 19.6 -3.1 14 13.2 N 24 32 13 17 1024.1 1023.4 0.0
19/09:30am 25.0 18.4 -3.4 15 12.4 NNE 22 32 12 17 1024.0 1023.3 0.0
19/09:00am 23.6 17.5 -3.7 16 11.7 NNE 19 24 10 13 1024.1 1023.4 0.0
19/08:30am 22.6 16.9 -3.7 17 11.2 NNE 17 22 9 12 1023.8 1023.1 0.0
19/08:00am 20.4 15.5 -3.3 20 9.9 NNE 13 17 7 9 1023.6 1022.9 0.0
19/07:30am 15.8 10.6 -3.1 27 7.6 NE 15 17 8 9 1023.3 1022.6 0.0
19/07:00am 13.3 8.0 -3.9 30 6.6 ENE 15 17 8 9 1023.1 1022.4 0.0
19/06:30am 12.7 8.1 -4.4 30 6.5 NE 11 13 6 7 1022.6 1022.0 0.0
19/06:00am 14.1 8.7 -4.1 28 7.0 NNE 15 17 8 9 1022.1 1021.5 0.0
19/05:30am 15.4 10.3 -5.0 24 7.9 NNE 13 17 7 9 1022.1 1021.5 0.0
19/05:00am 16.0 10.3 -4.0 25 7.9 NNE 17 19 9 10 1022.0 1021.3 0.0
19/04:30am 15.7 10.3 -4.2 25 7.9 NNE 15 15 8 8 1022.2 1021.6 0.0
19/04:00am 18.0 12.7 -3.4 23 8.8 NNE 15 17 8 9 1022.3 1021.7 0.0
19/03:30am 17.1 11.7 -4.2 23 8.5 NNE 15 17 8 9 1022.4 1021.8 0.0
19/03:00am 18.5 13.6 -3.6 22 9.0 NNE 13 15 7 8 1022.8 1022.2 0.0
19/02:30am 19.1 13.4 -3.7 21 9.4 NNE 17 19 9 10 1022.7 1022.1 0.0
19/02:00am 18.9 13.1 -4.5 20 9.4 NNE 17 20 9 11 1022.8 1022.2 0.0
19/01:30am 19.5 14.2 -4.0 20 9.7 NNE 15 17 8 9 1023.2 1022.5 0.0
19/01:00am 19.7 14.4 -3.9 20 9.7 NNE 15 17 8 9 1023.2 1022.5 0.0
19/12:30am 20.1 14.7 -4.2 19 10.0 NNE 15 17 8 9 1023.3 1022.6 0.0
19/12:00am 20.9 15.5 -4.3 18 10.4 NNE 15 19 8 10 1023.3 1022.6 0.0
 
Date/Time
EDT
Temp
°C
App
Temp
°C
Dew
Point
Rel
Hum
%
Delta-T
°C
Wind Press
QNH
hPa
Press
MSL
hPa
Rain
since 9 am
mm
Dir
 
Spd
km/h
Gust
km/h
Spd
kts
Gust
kts
18/11:30pm 21.1 15.4 -3.4 19 10.4 NNE 17 19 9 10 1023.5 1022.8 0.0
18/11:00pm 19.2 14.6 -4.3 20 9.5 NNE 11 13 6 7 1023.7 1023.0 0.0
18/10:30pm 18.9 13.8 -5.2 19 9.6 NNE 13 13 7 7 1023.8 1023.1 0.0
18/10:00pm 18.3 13.8 -6.4 18 9.5 NNE 9 11 5 6 1023.8 1023.1 0.0
18/09:30pm 20.7 16.0 -5.2 17 10.5 NNE 11 11 6 6 1023.6 1022.9 0.0
18/09:00pm 23.7 19.4 -5.3 14 12.1 NNE 9 11 5 6 1023.3 1022.6 0.0
18/08:30pm 24.9 20.2 -5.4 13 12.8 NNE 11 13 6 7 1023.0 1022.3 0.0
18/08:00pm 25.6 21.3 -4.8 13 13.0 NNE 9 11 5 6 1022.5 1021.9 0.0
18/07:30pm 27.2 22.5 -4.6 12 13.9 NNE 11 13 6 7 1022.1 1021.5 0.0
18/07:00pm 28.2 22.7 -5.0 11 14.5 NE 15 19 8 10 1021.7 1021.0 0.0
18/06:30pm 28.7 24.3 -5.9 10 14.9 NE 9 15 5 8 1021.4 1020.7 0.0
18/06:00pm 29.2 22.9 -5.5 10 15.1 NE 19 30 10 16 1021.2 1020.5 0.0
18/05:30pm 29.4 24.7 -5.4 10 15.3 NNE 11 22 6 12 1021.1 1020.4 0.0
18/05:00pm 29.3 25.4 -4.2 11 14.9 NW 7 19 4 10 1021.2 1020.5 0.0
18/04:30pm 29.3 24.3 -4.2 11 15.0 ENE 13 20 7 11 1021.5 1020.8 0.0
18/04:00pm 28.9 22.7 -4.5 11 14.8 NE 19 20 10 11 1021.7 1021.0 0.0
18/03:30pm 28.8 23.8 -4.6 11 14.7 NNE 13 24 7 13 1022.1 1021.5 0.0
18/03:00pm 28.7 22.3 -4.6 11 14.7 NE 20 26 11 14 1022.4 1021.8 0.0
18/02:30pm 28.7 22.6 -3.5 12 14.5 NNE 19 30 10 16 1023.1 1022.4 0.0
18/02:00pm 27.3 22.3 -4.6 12 13.9 NNW 13 22 7 12 1023.7 1023.0 0.0
18/01:30pm 27.0 22.1 -3.7 13 13.6 N 13 24 7 13 1024.1 1023.4 0.0
18/01:00pm 26.6 21.3 -4.0 13 13.4 N 15 22 8 12 1024.7 1024.0 0.0
18/12:30pm 25.6 20.9 -4.8 13 13.0 NNE 11 24 6 13 1025.1 1024.4 0.0
18/12:00pm 25.4 20.5 -3.1 15 12.5 N 13 20 7 11 1025.5 1024.9 0.0
18/11:30am 25.4 20.6 -2.2 16 12.4 N 13 24 7 13 1025.7 1025.1 0.0
18/11:00am 24.1 18.2 -2.4 17 11.7 NNE 19 26 10 14 1025.8 1025.2 0.0
18/10:30am 23.8 17.1 -1.2 19 11.3 NNE 24 30 13 16 1025.7 1025.1 0.0
18/10:00am 23.1 16.8 -1.1 20 10.8 NNE 22 28 12 15 1025.7 1025.1 0.0
18/09:30am 21.8 14.8 -0.8 22 10.1 NNE 26 33 14 18 1025.6 1025.0 0.0
18/09:00am 20.5 13.8 -1.3 23 9.5 NE 24 32 13 17 1025.2 1024.6 0.0
18/08:30am 18.5 12.6 -0.8 27 8.4 NE 20 26 11 14 1025.1 1024.4 0.0
18/08:00am 17.0 11.7 -0.7 30 7.6 NE 17 20 9 11 1024.9 1024.2 0.0
18/07:30am 14.3 9.9 0.5 39 5.9 NNE 13 15 7 8 1025.0 1024.3 0.0
18/07:00am 10.0 5.4 -0.8 47 4.3 NE 13 15 7 8 1024.7 1024.0 0.0
18/06:30am 11.1 6.4 0.8 49 4.3 NE 15 17 8 9 1024.3 1023.6 0.0
18/06:00am 10.7 6.2 -0.4 46 4.5 NE 13 15 7 8 1024.1 1023.4 0.0
18/05:30am 9.9 4.9 -0.9 47 4.3 NE 15 15 8 8 1024.0 1023.3 0.0
18/05:00am 11.7 7.2 -0.1 44 4.9 NE 13 13 7 7 1023.8 1023.1 0.0
18/04:30am 11.4 7.6 -1.0 42 5.0 NE 9 11 5 6 1023.7 1023.0 0.0
18/04:00am 14.8 10.4 0.6 38 6.1 NNE 13 17 7 9 1023.7 1023.0 0.0
18/03:30am 14.9 10.9 0.7 38 6.1 NNE 11 13 6 7 1023.8 1023.1 0.0
18/03:00am 12.1 8.7 -0.4 42 5.1 NNE 7 9 4 5 1023.9 1023.2 0.0
18/02:30am 12.3 7.3 -0.9 40 5.4 NE 15 15 8 8 1023.8 1023.1 0.0
18/02:00am 14.1 9.2 -0.4 37 6.1 NE 15 17 8 9 1023.7 1023.0 0.0
18/01:30am 14.6 10.1 -0.3 36 6.3 NE 13 13 7 7 1024.0 1023.3 0.0
18/01:00am 14.9 10.4 0.0 36 6.4 ENE 13 15 7 8 1024.2 1023.5 0.0
18/12:30am 15.2 10.3 -0.5 34 6.6 ENE 15 15 8 8 1024.2 1023.5 0.0
18/12:00am 15.5 10.6 -0.7 33 6.8 ENE 15 15 8 8 1024.3 1023.6 0.0
 
Date/Time
EDT
Temp
°C
App
Temp
°C
Dew
Point
Rel
Hum
%
Delta-T
°C
Wind Press
QNH
hPa
Press
MSL
hPa
Rain
since 9 am
mm
Dir
 
Spd
km/h
Gust
km/h
Spd
kts
Gust
kts
17/11:30pm 16.1 11.1 -1.0 31 7.3 ENE 15 15 8 8 1024.4 1023.7 0.0
17/11:00pm 16.1 11.5 -1.0 31 7.2 E 13 15 7 8 1024.4 1023.7 0.0
17/10:30pm 16.8 12.2 -1.3 29 7.7 E 13 15 7 8 1024.3 1023.6 0.0
17/10:00pm 16.4 11.3 -2.1 28 7.6 E 15 15 8 8 1024.3 1023.6 0.0
17/09:30pm 17.3 12.5 -2.4 26 8.2 E 13 15 7 8 1024.1 1023.4 0.0

Other Formats:

Comma delimited format used in spreadsheet applications
http://www.bom.gov.au/fwo/IDN60801/IDN60801.94691.axf

JavaScript Object Notation format (JSON) in row-major order
http://www.bom.gov.au/fwo/IDN60801/IDN60801.94691.json